sensor_id;sensor_type;location;lat;lon;timestamp;temperature;humidity
30399;DHT22;17195;50.838;7.214;2024-01-30T00:00:59;5.70;99.90
30399;DHT22;17195;50.838;7.214;2024-01-30T00:03:24;5.60;99.90
30399;DHT22;17195;50.838;7.214;2024-01-30T00:05:50;5.60;99.90
30399;DHT22;17195;50.838;7.214;2024-01-30T00:08:15;5.50;99.90
30399;DHT22;17195;50.838;7.214;2024-01-30T00:10:41;5.40;99.90
30399;DHT22;17195;50.838;7.214;2024-01-30T00:13:06;5.40;99.90
30399;DHT22;17195;50.838;7.214;2024-01-30T00:15:32;5.40;99.90
30399;DHT22;17195;50.838;7.214;2024-01-30T00:17:58;5.40;99.90
30399;DHT22;17195;50.838;7.214;2024-01-30T00:20:23;5.40;99.90
30399;DHT22;17195;50.838;7.214;2024-01-30T00:22:49;5.40;99.90
30399;DHT22;17195;50.838;7.214;2024-01-30T00:25:14;5.40;99.90
30399;DHT22;17195;50.838;7.214;2024-01-30T00:27:40;5.40;99.90
30399;DHT22;17195;50.838;7.214;2024-01-30T00:30:07;5.30;99.90
30399;DHT22;17195;50.838;7.214;2024-01-30T00:32:33;5.30;99.90
30399;DHT22;17195;50.838;7.214;2024-01-30T00:34:58;5.30;99.90
30399;DHT22;17195;50.838;7.214;2024-01-30T00:37:24;5.20;99.90
30399;DHT22;17195;50.838;7.214;2024-01-30T00:39:49;5.20;99.90
30399;DHT22;17195;50.838;7.214;2024-01-30T00:42:15;5.20;99.90
30399;DHT22;17195;50.838;7.214;2024-01-30T00:44:40;5.20;99.90
30399;DHT22;17195;50.838;7.214;2024-01-30T00:47:06;5.10;99.90
30399;DHT22;17195;50.838;7.214;2024-01-30T00:49:32;5.10;99.90
30399;DHT22;17195;50.838;7.214;2024-01-30T00:51:57;5.10;99.90
30399;DHT22;17195;50.838;7.214;2024-01-30T00:54:23;5.10;99.90
30399;DHT22;17195;50.838;7.214;2024-01-30T00:56:48;5.00;99.90
30399;DHT22;17195;50.838;7.214;2024-01-30T00:59:14;5.00;99.90
30399;DHT22;17195;50.838;7.214;2024-01-30T01:01:40;5.00;99.90
30399;DHT22;17195;50.838;7.214;2024-01-30T01:04:05;5.10;99.90
30399;DHT22;17195;50.838;7.214;2024-01-30T01:06:31;5.10;99.90
30399;DHT22;17195;50.838;7.214;2024-01-30T01:08:56;5.10;99.90
30399;DHT22;17195;50.838;7.214;2024-01-30T01:11:22;5.10;99.90
30399;DHT22;17195;50.838;7.214;2024-01-30T01:13:48;5.10;99.90
30399;DHT22;17195;50.838;7.214;2024-01-30T01:16:13;5.10;99.90
30399;DHT22;17195;50.838;7.214;2024-01-30T01:18:39;5.10;99.90
30399;DHT22;17195;50.838;7.214;2024-01-30T01:21:04;5.10;99.90
30399;DHT22;17195;50.838;7.214;2024-01-30T01:23:30;5.10;99.90
30399;DHT22;17195;50.838;7.214;2024-01-30T01:25:55;5.00;99.90
30399;DHT22;17195;50.838;7.214;2024-01-30T01:28:21;5.10;99.90
30399;DHT22;17195;50.838;7.214;2024-01-30T01:30:46;5.10;99.90
30399;DHT22;17195;50.838;7.214;2024-01-30T01:33:12;5.10;99.90
30399;DHT22;17195;50.838;7.214;2024-01-30T01:35:39;5.10;99.90
30399;DHT22;17195;50.838;7.214;2024-01-30T01:38:05;5.10;99.90
30399;DHT22;17195;50.838;7.214;2024-01-30T01:40:31;5.10;99.90
30399;DHT22;17195;50.838;7.214;2024-01-30T01:42:56;5.10;99.90
30399;DHT22;17195;50.838;7.214;2024-01-30T01:45:22;5.10;99.90
30399;DHT22;17195;50.838;7.214;2024-01-30T01:47:50;5.10;99.90
30399;DHT22;17195;50.838;7.214;2024-01-30T01:50:18;5.10;99.90
30399;DHT22;17195;50.838;7.214;2024-01-30T01:52:44;5.10;99.90
30399;DHT22;17195;50.838;7.214;2024-01-30T01:55:10;5.20;99.90
30399;DHT22;17195;50.838;7.214;2024-01-30T01:57:36;5.10;99.90
30399;DHT22;17195;50.838;7.214;2024-01-30T02:00:02;5.10;99.90
30399;DHT22;17195;50.838;7.214;2024-01-30T02:02:30;5.10;99.90
30399;DHT22;17195;50.838;7.214;2024-01-30T02:04:59;5.20;99.90
30399;DHT22;17195;50.838;7.214;2024-01-30T02:07:25;5.20;99.90
30399;DHT22;17195;50.838;7.214;2024-01-30T02:09:51;5.20;99.90
30399;DHT22;17195;50.838;7.214;2024-01-30T02:12:16;5.10;99.90
30399;DHT22;17195;50.838;7.214;2024-01-30T02:14:45;5.20;99.90
30399;DHT22;17195;50.838;7.214;2024-01-30T02:17:12;5.20;99.90
30399;DHT22;17195;50.838;7.214;2024-01-30T02:19:37;5.20;99.90
30399;DHT22;17195;50.838;7.214;2024-01-30T02:22:03;5.30;99.90
30399;DHT22;17195;50.838;7.214;2024-01-30T02:24:29;5.30;99.90
30399;DHT22;17195;50.838;7.214;2024-01-30T02:26:55;5.30;99.90
30399;DHT22;17195;50.838;7.214;2024-01-30T02:29:20;5.30;99.90
30399;DHT22;17195;50.838;7.214;2024-01-30T02:31:46;5.30;99.90
30399;DHT22;17195;50.838;7.214;2024-01-30T02:34:11;5.30;99.90
30399;DHT22;17195;50.838;7.214;2024-01-30T02:36:37;5.30;99.90
30399;DHT22;17195;50.838;7.214;2024-01-30T02:39:03;5.20;99.90
30399;DHT22;17195;50.838;7.214;2024-01-30T02:41:28;5.30;99.90
30399;DHT22;17195;50.838;7.214;2024-01-30T02:43:54;5.30;99.90
30399;DHT22;17195;50.838;7.214;2024-01-30T02:46:19;5.30;99.90
30399;DHT22;17195;50.838;7.214;2024-01-30T02:48:45;5.30;99.90
30399;DHT22;17195;50.838;7.214;2024-01-30T02:51:11;5.40;99.90
30399;DHT22;17195;50.838;7.214;2024-01-30T02:53:37;5.40;99.90
30399;DHT22;17195;50.838;7.214;2024-01-30T02:56:03;5.40;99.90
30399;DHT22;17195;50.838;7.214;2024-01-30T02:58:28;5.40;99.90
30399;DHT22;17195;50.838;7.214;2024-01-30T03:00:54;5.40;99.90
30399;DHT22;17195;50.838;7.214;2024-01-30T03:03:19;5.40;99.90
30399;DHT22;17195;50.838;7.214;2024-01-30T03:05:45;5.40;99.90
30399;DHT22;17195;50.838;7.214;2024-01-30T03:08:10;5.40;99.90
30399;DHT22;17195;50.838;7.214;2024-01-30T03:10:36;5.40;99.90
30399;DHT22;17195;50.838;7.214;2024-01-30T03:13:01;5.50;99.90
30399;DHT22;17195;50.838;7.214;2024-01-30T03:15:27;5.40;99.90
30399;DHT22;17195;50.838;7.214;2024-01-30T03:17:53;5.40;99.90
30399;DHT22;17195;50.838;7.214;2024-01-30T03:20:19;5.50;99.90
30399;DHT22;17195;50.838;7.214;2024-01-30T03:22:44;5.50;99.90
30399;DHT22;17195;50.838;7.214;2024-01-30T03:25:10;5.50;99.90
30399;DHT22;17195;50.838;7.214;2024-01-30T03:27:36;5.50;99.90
30399;DHT22;17195;50.838;7.214;2024-01-30T03:30:01;5.50;99.90
30399;DHT22;17195;50.838;7.214;2024-01-30T03:32:27;5.50;99.90
30399;DHT22;17195;50.838;7.214;2024-01-30T03:34:53;5.40;99.90
30399;DHT22;17195;50.838;7.214;2024-01-30T03:37:19;5.40;99.90
30399;DHT22;17195;50.838;7.214;2024-01-30T03:39:44;5.30;99.90
30399;DHT22;17195;50.838;7.214;2024-01-30T03:42:10;5.30;99.90
30399;DHT22;17195;50.838;7.214;2024-01-30T03:44:35;5.30;99.90
30399;DHT22;17195;50.838;7.214;2024-01-30T03:47:01;5.30;99.90
30399;DHT22;17195;50.838;7.214;2024-01-30T03:49:26;5.30;99.90
30399;DHT22;17195;50.838;7.214;2024-01-30T03:51:52;5.40;99.90
30399;DHT22;17195;50.838;7.214;2024-01-30T03:54:17;5.40;99.90
30399;DHT22;17195;50.838;7.214;2024-01-30T03:56:43;5.40;99.90
30399;DHT22;17195;50.838;7.214;2024-01-30T03:59:08;5.40;99.90
30399;DHT22;17195;50.838;7.214;2024-01-30T04:01:34;5.50;99.90
30399;DHT22;17195;50.838;7.214;2024-01-30T04:03:59;5.50;99.90
30399;DHT22;17195;50.838;7.214;2024-01-30T04:06:26;5.50;99.90
30399;DHT22;17195;50.838;7.214;2024-01-30T04:08:51;5.50;99.90
30399;DHT22;17195;50.838;7.214;2024-01-30T04:11:18;5.50;99.90
30399;DHT22;17195;50.838;7.214;2024-01-30T04:13:45;5.40;99.90
30399;DHT22;17195;50.838;7.214;2024-01-30T04:16:19;5.40;99.90
30399;DHT22;17195;50.838;7.214;2024-01-30T04:18:46;5.40;99.90
30399;DHT22;17195;50.838;7.214;2024-01-30T04:21:11;5.30;99.90
30399;DHT22;17195;50.838;7.214;2024-01-30T04:23:37;5.20;99.90
30399;DHT22;17195;50.838;7.214;2024-01-30T04:26:02;5.20;99.90
30399;DHT22;17195;50.838;7.214;2024-01-30T04:28:28;5.20;99.90
30399;DHT22;17195;50.838;7.214;2024-01-30T04:30:54;5.30;99.90
30399;DHT22;17195;50.838;7.214;2024-01-30T04:33:19;5.20;99.90
30399;DHT22;17195;50.838;7.214;2024-01-30T04:35:45;5.20;99.90
30399;DHT22;17195;50.838;7.214;2024-01-30T04:38:10;5.20;99.90
30399;DHT22;17195;50.838;7.214;2024-01-30T04:40:36;5.20;99.90
30399;DHT22;17195;50.838;7.214;2024-01-30T04:43:01;5.10;99.90
30399;DHT22;17195;50.838;7.214;2024-01-30T04:45:27;5.20;99.90
30399;DHT22;17195;50.838;7.214;2024-01-30T04:47:52;5.20;99.90
30399;DHT22;17195;50.838;7.214;2024-01-30T04:50:18;5.10;99.90
30399;DHT22;17195;50.838;7.214;2024-01-30T04:52:44;5.10;99.90
30399;DHT22;17195;50.838;7.214;2024-01-30T04:55:09;5.00;99.90
30399;DHT22;17195;50.838;7.214;2024-01-30T04:57:35;5.00;99.90
30399;DHT22;17195;50.838;7.214;2024-01-30T05:00:01;5.00;99.90
30399;DHT22;17195;50.838;7.214;2024-01-30T05:02:27;4.90;99.90
30399;DHT22;17195;50.838;7.214;2024-01-30T05:04:52;4.90;99.90
30399;DHT22;17195;50.838;7.214;2024-01-30T05:07:18;4.90;99.90
30399;DHT22;17195;50.838;7.214;2024-01-30T05:09:43;4.90;99.90
30399;DHT22;17195;50.838;7.214;2024-01-30T05:12:09;4.90;99.90
30399;DHT22;17195;50.838;7.214;2024-01-30T05:14:34;4.90;99.90
30399;DHT22;17195;50.838;7.214;2024-01-30T05:17:00;4.90;99.90
30399;DHT22;17195;50.838;7.214;2024-01-30T05:19:25;4.90;99.90
30399;DHT22;17195;50.838;7.214;2024-01-30T05:21:51;4.80;99.90
30399;DHT22;17195;50.838;7.214;2024-01-30T05:24:16;4.80;99.90
30399;DHT22;17195;50.838;7.214;2024-01-30T05:26:42;4.80;99.90
30399;DHT22;17195;50.838;7.214;2024-01-30T05:29:08;4.80;99.90
30399;DHT22;17195;50.838;7.214;2024-01-30T05:31:36;4.80;99.90
30399;DHT22;17195;50.838;7.214;2024-01-30T05:34:02;4.80;99.90
30399;DHT22;17195;50.838;7.214;2024-01-30T05:36:27;4.80;99.90
30399;DHT22;17195;50.838;7.214;2024-01-30T05:38:53;4.80;99.90
30399;DHT22;17195;50.838;7.214;2024-01-30T05:41:20;4.80;99.90
30399;DHT22;17195;50.838;7.214;2024-01-30T05:43:46;4.80;99.90
30399;DHT22;17195;50.838;7.214;2024-01-30T05:46:12;4.90;99.90
30399;DHT22;17195;50.838;7.214;2024-01-30T05:48:37;4.90;99.90
30399;DHT22;17195;50.838;7.214;2024-01-30T05:51:03;4.80;99.90
30399;DHT22;17195;50.838;7.214;2024-01-30T05:53:29;4.90;99.90
30399;DHT22;17195;50.838;7.214;2024-01-30T05:55:55;4.90;99.90
30399;DHT22;17195;50.838;7.214;2024-01-30T05:58:20;4.90;99.90
30399;DHT22;17195;50.838;7.214;2024-01-30T06:00:47;4.80;99.90
30399;DHT22;17195;50.838;7.214;2024-01-30T06:03:12;4.70;99.90
30399;DHT22;17195;50.838;7.214;2024-01-30T06:05:38;4.70;99.90
30399;DHT22;17195;50.838;7.214;2024-01-30T06:08:03;4.70;99.90
30399;DHT22;17195;50.838;7.214;2024-01-30T06:10:29;4.70;99.90
30399;DHT22;17195;50.838;7.214;2024-01-30T06:12:54;4.70;99.90
30399;DHT22;17195;50.838;7.214;2024-01-30T06:15:20;4.60;99.90
30399;DHT22;17195;50.838;7.214;2024-01-30T06:17:46;4.60;99.90
30399;DHT22;17195;50.838;7.214;2024-01-30T06:20:11;4.60;99.90
30399;DHT22;17195;50.838;7.214;2024-01-30T06:22:37;4.60;99.90
30399;DHT22;17195;50.838;7.214;2024-01-30T06:25:02;4.60;99.90
30399;DHT22;17195;50.838;7.214;2024-01-30T06:27:28;4.70;99.90
30399;DHT22;17195;50.838;7.214;2024-01-30T06:29:54;4.60;99.90
30399;DHT22;17195;50.838;7.214;2024-01-30T06:32:19;4.60;99.90
30399;DHT22;17195;50.838;7.214;2024-01-30T06:34:45;4.60;99.90
30399;DHT22;17195;50.838;7.214;2024-01-30T06:37:10;4.70;99.90
30399;DHT22;17195;50.838;7.214;2024-01-30T06:39:36;4.70;99.90
30399;DHT22;17195;50.838;7.214;2024-01-30T06:42:02;4.80;99.90
30399;DHT22;17195;50.838;7.214;2024-01-30T06:44:27;4.80;99.90
30399;DHT22;17195;50.838;7.214;2024-01-30T06:46:53;4.80;99.90
30399;DHT22;17195;50.838;7.214;2024-01-30T06:49:19;4.80;99.90
30399;DHT22;17195;50.838;7.214;2024-01-30T06:51:44;4.80;99.90
30399;DHT22;17195;50.838;7.214;2024-01-30T06:54:10;4.80;99.90
30399;DHT22;17195;50.838;7.214;2024-01-30T06:56:35;4.90;99.90
30399;DHT22;17195;50.838;7.214;2024-01-30T06:59:01;4.90;99.90
30399;DHT22;17195;50.838;7.214;2024-01-30T07:01:30;5.10;99.90
30399;DHT22;17195;50.838;7.214;2024-01-30T07:03:56;5.10;99.90
30399;DHT22;17195;50.838;7.214;2024-01-30T07:06:21;5.10;99.90
30399;DHT22;17195;50.838;7.214;2024-01-30T07:08:48;5.00;99.90
30399;DHT22;17195;50.838;7.214;2024-01-30T07:11:21;4.90;99.90
30399;DHT22;17195;50.838;7.214;2024-01-30T07:13:52;4.90;99.90
30399;DHT22;17195;50.838;7.214;2024-01-30T07:16:18;4.90;99.90
30399;DHT22;17195;50.838;7.214;2024-01-30T07:18:43;4.90;99.90
30399;DHT22;17195;50.838;7.214;2024-01-30T07:21:09;5.00;99.90
30399;DHT22;17195;50.838;7.214;2024-01-30T07:23:35;5.00;99.90
30399;DHT22;17195;50.838;7.214;2024-01-30T07:26:01;5.00;99.90
30399;DHT22;17195;50.838;7.214;2024-01-30T07:28:27;5.00;99.90
30399;DHT22;17195;50.838;7.214;2024-01-30T07:30:52;5.10;99.90
30399;DHT22;17195;50.838;7.214;2024-01-30T07:33:18;5.10;99.90
30399;DHT22;17195;50.838;7.214;2024-01-30T07:35:44;5.20;99.90
30399;DHT22;17195;50.838;7.214;2024-01-30T07:38:10;5.30;99.90
30399;DHT22;17195;50.838;7.214;2024-01-30T07:40:35;5.40;99.90
30399;DHT22;17195;50.838;7.214;2024-01-30T07:43:01;5.40;99.90
30399;DHT22;17195;50.838;7.214;2024-01-30T07:45:28;5.50;99.90
30399;DHT22;17195;50.838;7.214;2024-01-30T07:47:58;5.50;99.90
30399;DHT22;17195;50.838;7.214;2024-01-30T07:50:25;5.50;99.90
30399;DHT22;17195;50.838;7.214;2024-01-30T07:52:50;5.60;99.90
30399;DHT22;17195;50.838;7.214;2024-01-30T07:55:22;5.60;99.90
30399;DHT22;17195;50.838;7.214;2024-01-30T07:57:57;5.60;99.90
30399;DHT22;17195;50.838;7.214;2024-01-30T08:00:22;5.70;99.90
30399;DHT22;17195;50.838;7.214;2024-01-30T08:02:48;5.80;99.90
30399;DHT22;17195;50.838;7.214;2024-01-30T08:05:14;5.90;99.90
30399;DHT22;17195;50.838;7.214;2024-01-30T08:07:41;6.00;99.90
30399;DHT22;17195;50.838;7.214;2024-01-30T08:10:08;6.00;99.90
30399;DHT22;17195;50.838;7.214;2024-01-30T08:12:33;6.00;99.90
30399;DHT22;17195;50.838;7.214;2024-01-30T08:14:59;6.10;99.90
30399;DHT22;17195;50.838;7.214;2024-01-30T08:17:24;6.20;99.90
30399;DHT22;17195;50.838;7.214;2024-01-30T08:19:50;6.30;99.90
30399;DHT22;17195;50.838;7.214;2024-01-30T08:22:15;6.40;99.90
30399;DHT22;17195;50.838;7.214;2024-01-30T08:24:41;6.40;99.90
30399;DHT22;17195;50.838;7.214;2024-01-30T08:27:07;6.50;99.90
30399;DHT22;17195;50.838;7.214;2024-01-30T08:29:35;6.60;99.90
30399;DHT22;17195;50.838;7.214;2024-01-30T08:32:01;6.60;99.90
30399;DHT22;17195;50.838;7.214;2024-01-30T08:34:26;6.60;99.90
30399;DHT22;17195;50.838;7.214;2024-01-30T08:36:52;6.60;99.90
30399;DHT22;17195;50.838;7.214;2024-01-30T08:39:18;6.70;99.90
30399;DHT22;17195;50.838;7.214;2024-01-30T08:41:43;6.70;99.90
30399;DHT22;17195;50.838;7.214;2024-01-30T08:44:09;6.70;99.90
30399;DHT22;17195;50.838;7.214;2024-01-30T08:46:36;6.80;99.90
30399;DHT22;17195;50.838;7.214;2024-01-30T08:49:02;7.00;99.90
30399;DHT22;17195;50.838;7.214;2024-01-30T08:51:29;7.10;99.90
30399;DHT22;17195;50.838;7.214;2024-01-30T08:53:55;7.20;99.90
30399;DHT22;17195;50.838;7.214;2024-01-30T08:56:20;7.30;99.90
30399;DHT22;17195;50.838;7.214;2024-01-30T08:58:46;7.30;99.90
30399;DHT22;17195;50.838;7.214;2024-01-30T09:01:11;7.30;99.90
30399;DHT22;17195;50.838;7.214;2024-01-30T09:03:37;7.40;99.90
30399;DHT22;17195;50.838;7.214;2024-01-30T09:06:08;7.50;99.90
30399;DHT22;17195;50.838;7.214;2024-01-30T09:08:34;7.50;99.90
30399;DHT22;17195;50.838;7.214;2024-01-30T09:11:00;7.60;99.90
30399;DHT22;17195;50.838;7.214;2024-01-30T09:13:25;7.60;99.90
30399;DHT22;17195;50.838;7.214;2024-01-30T09:15:51;7.70;99.90
30399;DHT22;17195;50.838;7.214;2024-01-30T09:18:16;7.80;99.90
30399;DHT22;17195;50.838;7.214;2024-01-30T09:20:42;7.90;99.90
30399;DHT22;17195;50.838;7.214;2024-01-30T09:23:07;7.90;99.90
30399;DHT22;17195;50.838;7.214;2024-01-30T09:25:33;8.00;99.90
30399;DHT22;17195;50.838;7.214;2024-01-30T09:27:59;8.10;99.90
30399;DHT22;17195;50.838;7.214;2024-01-30T09:30:25;8.20;99.90
30399;DHT22;17195;50.838;7.214;2024-01-30T09:32:50;8.40;99.90
30399;DHT22;17195;50.838;7.214;2024-01-30T09:35:16;8.50;99.90
30399;DHT22;17195;50.838;7.214;2024-01-30T09:37:41;8.60;99.90
30399;DHT22;17195;50.838;7.214;2024-01-30T09:40:07;8.80;99.90
30399;DHT22;17195;50.838;7.214;2024-01-30T09:42:35;8.90;99.90
30399;DHT22;17195;50.838;7.214;2024-01-30T09:45:05;9.10;99.90
30399;DHT22;17195;50.838;7.214;2024-01-30T09:47:41;9.30;99.90
30399;DHT22;17195;50.838;7.214;2024-01-30T09:50:11;9.40;99.90
30399;DHT22;17195;50.838;7.214;2024-01-30T09:52:37;9.60;99.90
30399;DHT22;17195;50.838;7.214;2024-01-30T09:55:04;9.70;99.90
30399;DHT22;17195;50.838;7.214;2024-01-30T09:57:29;9.90;99.90
30399;DHT22;17195;50.838;7.214;2024-01-30T09:59:55;10.20;99.90
30399;DHT22;17195;50.838;7.214;2024-01-30T10:02:21;10.40;99.90
30399;DHT22;17195;50.838;7.214;2024-01-30T10:04:48;10.50;99.90
30399;DHT22;17195;50.838;7.214;2024-01-30T10:07:14;10.60;99.90
30399;DHT22;17195;50.838;7.214;2024-01-30T10:09:40;10.70;99.90
30399;DHT22;17195;50.838;7.214;2024-01-30T10:12:06;10.80;99.90
30399;DHT22;17195;50.838;7.214;2024-01-30T10:14:31;10.80;99.90
30399;DHT22;17195;50.838;7.214;2024-01-30T10:16:57;10.80;99.90
30399;DHT22;17195;50.838;7.214;2024-01-30T10:19:23;10.90;99.90
30399;DHT22;17195;50.838;7.214;2024-01-30T10:21:49;11.00;99.90
30399;DHT22;17195;50.838;7.214;2024-01-30T10:24:14;11.10;99.90
30399;DHT22;17195;50.838;7.214;2024-01-30T10:26:43;11.20;99.90
30399;DHT22;17195;50.838;7.214;2024-01-30T10:29:08;11.20;99.90
30399;DHT22;17195;50.838;7.214;2024-01-30T10:31:34;11.30;99.90
30399;DHT22;17195;50.838;7.214;2024-01-30T10:34:00;11.40;99.90
30399;DHT22;17195;50.838;7.214;2024-01-30T10:36:28;11.50;99.90
30399;DHT22;17195;50.838;7.214;2024-01-30T10:38:57;11.60;99.90
30399;DHT22;17195;50.838;7.214;2024-01-30T10:41:26;11.70;99.90
30399;DHT22;17195;50.838;7.214;2024-01-30T10:44:12;11.70;99.90
30399;DHT22;17195;50.838;7.214;2024-01-30T10:46:42;11.80;99.90
30399;DHT22;17195;50.838;7.214;2024-01-30T10:49:09;11.90;99.90
30399;DHT22;17195;50.838;7.214;2024-01-30T10:51:36;11.90;99.90
30399;DHT22;17195;50.838;7.214;2024-01-30T10:54:03;12.00;99.90
30399;DHT22;17195;50.838;7.214;2024-01-30T10:56:32;12.10;99.90
30399;DHT22;17195;50.838;7.214;2024-01-30T10:58:58;12.10;99.90
30399;DHT22;17195;50.838;7.214;2024-01-30T11:01:25;12.10;99.90
30399;DHT22;17195;50.838;7.214;2024-01-30T11:03:52;12.10;99.90
30399;DHT22;17195;50.838;7.214;2024-01-30T11:06:17;12.10;99.90
30399;DHT22;17195;50.838;7.214;2024-01-30T11:08:59;12.10;99.90
30399;DHT22;17195;50.838;7.214;2024-01-30T11:11:25;12.20;99.90
30399;DHT22;17195;50.838;7.214;2024-01-30T11:13:50;12.20;99.90
30399;DHT22;17195;50.838;7.214;2024-01-30T11:16:17;12.30;99.90
30399;DHT22;17195;50.838;7.214;2024-01-30T11:18:42;12.40;99.90
30399;DHT22;17195;50.838;7.214;2024-01-30T11:21:08;12.50;99.90
30399;DHT22;17195;50.838;7.214;2024-01-30T11:23:34;12.50;99.90
30399;DHT22;17195;50.838;7.214;2024-01-30T11:26:00;12.60;99.90
30399;DHT22;17195;50.838;7.214;2024-01-30T11:28:35;12.60;99.90
30399;DHT22;17195;50.838;7.214;2024-01-30T11:31:06;12.70;99.90
30399;DHT22;17195;50.838;7.214;2024-01-30T11:33:32;12.60;99.90
30399;DHT22;17195;50.838;7.214;2024-01-30T11:35:59;12.60;99.90
30399;DHT22;17195;50.838;7.214;2024-01-30T11:38:26;12.60;99.90
30399;DHT22;17195;50.838;7.214;2024-01-30T11:40:56;12.70;99.90
30399;DHT22;17195;50.838;7.214;2024-01-30T11:43:23;12.70;99.90
30399;DHT22;17195;50.838;7.214;2024-01-30T11:45:49;12.80;99.90
30399;DHT22;17195;50.838;7.214;2024-01-30T11:48:14;12.80;99.90
30399;DHT22;17195;50.838;7.214;2024-01-30T11:50:40;12.90;99.90
30399;DHT22;17195;50.838;7.214;2024-01-30T11:53:06;12.90;99.90
30399;DHT22;17195;50.838;7.214;2024-01-30T11:55:32;13.00;99.90
30399;DHT22;17195;50.838;7.214;2024-01-30T11:57:58;13.10;99.90
30399;DHT22;17195;50.838;7.214;2024-01-30T12:00:24;13.20;99.90
30399;DHT22;17195;50.838;7.214;2024-01-30T12:02:51;13.20;99.90
30399;DHT22;17195;50.838;7.214;2024-01-30T12:05:18;13.30;99.90
30399;DHT22;17195;50.838;7.214;2024-01-30T12:07:44;13.40;99.90
30399;DHT22;17195;50.838;7.214;2024-01-30T12:10:12;13.50;99.90
30399;DHT22;17195;50.838;7.214;2024-01-30T12:12:39;13.50;99.90
30399;DHT22;17195;50.838;7.214;2024-01-30T12:15:06;13.50;99.90
30399;DHT22;17195;50.838;7.214;2024-01-30T12:17:33;13.40;99.90
30399;DHT22;17195;50.838;7.214;2024-01-30T12:20:10;13.40;99.90
30399;DHT22;17195;50.838;7.214;2024-01-30T12:22:36;13.40;99.90
30399;DHT22;17195;50.838;7.214;2024-01-30T12:25:05;13.40;99.90
30399;DHT22;17195;50.838;7.214;2024-01-30T12:27:31;13.40;99.90
30399;DHT22;17195;50.838;7.214;2024-01-30T12:29:57;13.40;99.90
30399;DHT22;17195;50.838;7.214;2024-01-30T12:32:23;13.50;99.90
30399;DHT22;17195;50.838;7.214;2024-01-30T12:34:49;13.60;99.90
30399;DHT22;17195;50.838;7.214;2024-01-30T12:37:15;13.70;99.90
30399;DHT22;17195;50.838;7.214;2024-01-30T12:39:48;13.70;99.90
30399;DHT22;17195;50.838;7.214;2024-01-30T12:42:14;13.80;99.90
30399;DHT22;17195;50.838;7.214;2024-01-30T12:44:39;13.90;99.90
30399;DHT22;17195;50.838;7.214;2024-01-30T12:47:05;14.00;99.90
30399;DHT22;17195;50.838;7.214;2024-01-30T12:49:31;14.00;99.90
30399;DHT22;17195;50.838;7.214;2024-01-30T12:51:57;14.00;99.90
30399;DHT22;17195;50.838;7.214;2024-01-30T12:54:23;14.00;99.90
30399;DHT22;17195;50.838;7.214;2024-01-30T12:56:49;14.00;99.90
30399;DHT22;17195;50.838;7.214;2024-01-30T12:59:14;14.10;99.90
30399;DHT22;17195;50.838;7.214;2024-01-30T13:01:40;14.10;99.90
30399;DHT22;17195;50.838;7.214;2024-01-30T13:04:05;14.20;99.90
30399;DHT22;17195;50.838;7.214;2024-01-30T13:06:31;14.10;99.90
30399;DHT22;17195;50.838;7.214;2024-01-30T13:08:56;14.00;99.90
30399;DHT22;17195;50.838;7.214;2024-01-30T13:11:22;14.00;99.90
30399;DHT22;17195;50.838;7.214;2024-01-30T13:13:48;13.90;99.90
30399;DHT22;17195;50.838;7.214;2024-01-30T13:16:13;13.90;99.90
30399;DHT22;17195;50.838;7.214;2024-01-30T13:18:39;14.00;99.90
30399;DHT22;17195;50.838;7.214;2024-01-30T13:21:04;14.00;99.90
30399;DHT22;17195;50.838;7.214;2024-01-30T13:23:30;14.10;99.90
30399;DHT22;17195;50.838;7.214;2024-01-30T13:25:55;14.10;99.90
30399;DHT22;17195;50.838;7.214;2024-01-30T13:28:24;14.10;99.90
30399;DHT22;17195;50.838;7.214;2024-01-30T13:30:51;14.10;99.90
30399;DHT22;17195;50.838;7.214;2024-01-30T13:33:16;14.20;99.90
30399;DHT22;17195;50.838;7.214;2024-01-30T13:35:42;14.20;99.90
30399;DHT22;17195;50.838;7.214;2024-01-30T13:38:08;14.30;99.90
30399;DHT22;17195;50.838;7.214;2024-01-30T13:40:33;14.30;99.90
30399;DHT22;17195;50.838;7.214;2024-01-30T13:42:59;14.30;99.90
30399;DHT22;17195;50.838;7.214;2024-01-30T13:45:24;14.30;99.90
30399;DHT22;17195;50.838;7.214;2024-01-30T13:47:50;14.20;99.90
30399;DHT22;17195;50.838;7.214;2024-01-30T13:50:16;14.20;99.90
30399;DHT22;17195;50.838;7.214;2024-01-30T13:52:42;14.10;99.90
30399;DHT22;17195;50.838;7.214;2024-01-30T13:55:09;14.10;99.90
30399;DHT22;17195;50.838;7.214;2024-01-30T13:57:38;14.00;99.90
30399;DHT22;17195;50.838;7.214;2024-01-30T14:00:04;13.80;99.90
30399;DHT22;17195;50.838;7.214;2024-01-30T14:02:33;13.80;99.90
30399;DHT22;17195;50.838;7.214;2024-01-30T14:04:58;13.80;99.90
30399;DHT22;17195;50.838;7.214;2024-01-30T14:07:24;13.80;99.90
30399;DHT22;17195;50.838;7.214;2024-01-30T14:09:50;13.70;99.90
30399;DHT22;17195;50.838;7.214;2024-01-30T14:12:15;13.80;99.90
30399;DHT22;17195;50.838;7.214;2024-01-30T14:14:41;13.80;99.90
30399;DHT22;17195;50.838;7.214;2024-01-30T14:17:07;13.80;99.90
30399;DHT22;17195;50.838;7.214;2024-01-30T14:19:34;13.90;99.90
30399;DHT22;17195;50.838;7.214;2024-01-30T14:21:59;13.90;99.90
30399;DHT22;17195;50.838;7.214;2024-01-30T14:24:25;14.00;99.90
30399;DHT22;17195;50.838;7.214;2024-01-30T14:26:51;14.00;99.90
30399;DHT22;17195;50.838;7.214;2024-01-30T14:29:16;14.00;99.90
30399;DHT22;17195;50.838;7.214;2024-01-30T14:31:42;14.00;99.90
30399;DHT22;17195;50.838;7.214;2024-01-30T14:34:07;14.00;99.90
30399;DHT22;17195;50.838;7.214;2024-01-30T14:36:34;14.00;99.90
30399;DHT22;17195;50.838;7.214;2024-01-30T14:38:59;14.00;99.90
30399;DHT22;17195;50.838;7.214;2024-01-30T14:41:25;14.00;99.90
30399;DHT22;17195;50.838;7.214;2024-01-30T14:43:51;14.00;99.90
30399;DHT22;17195;50.838;7.214;2024-01-30T14:46:16;14.00;99.90
30399;DHT22;17195;50.838;7.214;2024-01-30T14:48:42;13.90;99.90
30399;DHT22;17195;50.838;7.214;2024-01-30T14:51:08;13.80;99.90
30399;DHT22;17195;50.838;7.214;2024-01-30T14:53:34;13.70;99.90
30399;DHT22;17195;50.838;7.214;2024-01-30T14:55:59;13.70;99.90
30399;DHT22;17195;50.838;7.214;2024-01-30T14:58:25;13.70;99.90
30399;DHT22;17195;50.838;7.214;2024-01-30T15:00:51;13.60;99.90
30399;DHT22;17195;50.838;7.214;2024-01-30T15:03:16;13.60;99.90
30399;DHT22;17195;50.838;7.214;2024-01-30T15:05:42;13.50;99.90
30399;DHT22;17195;50.838;7.214;2024-01-30T15:08:07;13.50;99.90
30399;DHT22;17195;50.838;7.214;2024-01-30T15:10:33;13.40;99.90
30399;DHT22;17195;50.838;7.214;2024-01-30T15:12:58;13.40;99.90
30399;DHT22;17195;50.838;7.214;2024-01-30T15:15:24;13.40;99.90
30399;DHT22;17195;50.838;7.214;2024-01-30T15:17:49;13.30;99.90
30399;DHT22;17195;50.838;7.214;2024-01-30T15:20:15;13.30;99.90
30399;DHT22;17195;50.838;7.214;2024-01-30T15:22:43;13.20;99.90
30399;DHT22;17195;50.838;7.214;2024-01-30T15:25:10;13.20;99.90
30399;DHT22;17195;50.838;7.214;2024-01-30T15:27:36;13.10;99.90
30399;DHT22;17195;50.838;7.214;2024-01-30T15:30:02;13.10;99.90
30399;DHT22;17195;50.838;7.214;2024-01-30T15:32:28;13.00;99.90